sensor_id;sensor_type;location;lat;lon;timestamp;P1;durP1;ratioP1;P2;durP2;ratioP2
4051;SDS011;2040;50.924;11.604;2023-06-26T00:01:37;8.00;;;4.33;;
4051;SDS011;2040;50.924;11.604;2023-06-26T00:04:05;12.00;;;4.40;;
4051;SDS011;2040;50.924;11.604;2023-06-26T00:06:30;9.83;;;5.37;;
4051;SDS011;2040;50.924;11.604;2023-06-26T00:08:56;10.13;;;5.00;;
4051;SDS011;2040;50.924;11.604;2023-06-26T00:11:23;8.10;;;4.93;;
4051;SDS011;2040;50.924;11.604;2023-06-26T00:13:49;10.80;;;4.60;;
4051;SDS011;2040;50.924;11.604;2023-06-26T00:16:15;8.97;;;4.93;;
4051;SDS011;2040;50.924;11.604;2023-06-26T00:18:41;12.20;;;5.70;;
4051;SDS011;2040;50.924;11.604;2023-06-26T00:21:06;9.87;;;6.30;;
4051;SDS011;2040;50.924;11.604;2023-06-26T00:23:32;11.17;;;6.37;;
4051;SDS011;2040;50.924;11.604;2023-06-26T00:26:02;11.47;;;5.43;;
4051;SDS011;2040;50.924;11.604;2023-06-26T00:28:30;7.63;;;4.50;;
4051;SDS011;2040;50.924;11.604;2023-06-26T00:30:56;9.70;;;4.70;;
4051;SDS011;2040;50.924;11.604;2023-06-26T00:33:21;18.13;;;4.30;;
4051;SDS011;2040;50.924;11.604;2023-06-26T00:35:47;8.73;;;4.20;;
4051;SDS011;2040;50.924;11.604;2023-06-26T00:38:12;6.57;;;4.20;;
4051;SDS011;2040;50.924;11.604;2023-06-26T00:40:38;7.13;;;4.43;;
4051;SDS011;2040;50.924;11.604;2023-06-26T00:43:03;15.53;;;4.30;;
4051;SDS011;2040;50.924;11.604;2023-06-26T00:45:29;5.97;;;4.60;;
4051;SDS011;2040;50.924;11.604;2023-06-26T00:47:54;9.27;;;5.13;;
4051;SDS011;2040;50.924;11.604;2023-06-26T00:50:20;7.27;;;5.40;;
4051;SDS011;2040;50.924;11.604;2023-06-26T00:52:46;8.23;;;4.73;;
4051;SDS011;2040;50.924;11.604;2023-06-26T00:55:12;12.67;;;5.13;;
4051;SDS011;2040;50.924;11.604;2023-06-26T00:57:37;9.30;;;4.83;;
4051;SDS011;2040;50.924;11.604;2023-06-26T01:00:03;6.83;;;4.00;;
4051;SDS011;2040;50.924;11.604;2023-06-26T01:02:30;7.17;;;4.57;;
4051;SDS011;2040;50.924;11.604;2023-06-26T01:05:01;9.93;;;4.60;;
4051;SDS011;2040;50.924;11.604;2023-06-26T01:07:31;8.93;;;4.40;;
4051;SDS011;2040;50.924;11.604;2023-06-26T01:10:01;6.83;;;4.20;;
4051;SDS011;2040;50.924;11.604;2023-06-26T01:12:31;6.80;;;4.77;;
4051;SDS011;2040;50.924;11.604;2023-06-26T01:14:57;7.47;;;4.20;;
4051;SDS011;2040;50.924;11.604;2023-06-26T01:17:24;7.97;;;4.80;;
4051;SDS011;2040;50.924;11.604;2023-06-26T01:19:52;11.17;;;4.70;;
4051;SDS011;2040;50.924;11.604;2023-06-26T01:22:21;7.10;;;4.83;;
4051;SDS011;2040;50.924;11.604;2023-06-26T01:25:12;7.10;;;4.30;;
4051;SDS011;2040;50.924;11.604;2023-06-26T01:27:46;6.70;;;4.27;;
4051;SDS011;2040;50.924;11.604;2023-06-26T01:30:15;8.70;;;5.10;;
4051;SDS011;2040;50.924;11.604;2023-06-26T01:32:41;6.53;;;4.50;;
4051;SDS011;2040;50.924;11.604;2023-06-26T01:35:07;9.00;;;4.73;;
4051;SDS011;2040;50.924;11.604;2023-06-26T01:37:34;8.37;;;5.00;;
4051;SDS011;2040;50.924;11.604;2023-06-26T01:40:00;8.80;;;5.30;;
4051;SDS011;2040;50.924;11.604;2023-06-26T01:42:25;10.10;;;4.90;;
4051;SDS011;2040;50.924;11.604;2023-06-26T01:44:52;6.73;;;5.10;;
4051;SDS011;2040;50.924;11.604;2023-06-26T01:47:21;8.33;;;4.83;;
4051;SDS011;2040;50.924;11.604;2023-06-26T01:49:59;9.87;;;4.53;;
4051;SDS011;2040;50.924;11.604;2023-06-26T01:55:19;6.90;;;4.53;;
4051;SDS011;2040;50.924;11.604;2023-06-26T01:57:54;6.57;;;5.00;;
4051;SDS011;2040;50.924;11.604;2023-06-26T02:00:21;7.07;;;4.90;;
4051;SDS011;2040;50.924;11.604;2023-06-26T02:02:49;8.40;;;4.57;;
4051;SDS011;2040;50.924;11.604;2023-06-26T02:05:14;8.90;;;5.90;;
4051;SDS011;2040;50.924;11.604;2023-06-26T02:07:40;8.23;;;5.10;;
4051;SDS011;2040;50.924;11.604;2023-06-26T02:10:06;8.43;;;5.07;;
4051;SDS011;2040;50.924;11.604;2023-06-26T02:12:32;10.07;;;6.00;;
4051;SDS011;2040;50.924;11.604;2023-06-26T02:14:58;8.37;;;5.03;;
4051;SDS011;2040;50.924;11.604;2023-06-26T02:17:24;9.57;;;5.83;;
4051;SDS011;2040;50.924;11.604;2023-06-26T02:19:50;8.60;;;5.10;;
4051;SDS011;2040;50.924;11.604;2023-06-26T02:22:15;12.20;;;5.17;;
4051;SDS011;2040;50.924;11.604;2023-06-26T02:24:42;8.07;;;5.13;;
4051;SDS011;2040;50.924;11.604;2023-06-26T02:27:08;10.90;;;4.47;;
4051;SDS011;2040;50.924;11.604;2023-06-26T02:29:34;7.50;;;5.40;;
4051;SDS011;2040;50.924;11.604;2023-06-26T02:32:00;7.53;;;4.60;;
4051;SDS011;2040;50.924;11.604;2023-06-26T02:34:26;5.90;;;4.20;;
4051;SDS011;2040;50.924;11.604;2023-06-26T02:36:51;9.23;;;4.80;;
4051;SDS011;2040;50.924;11.604;2023-06-26T02:39:19;7.60;;;4.43;;
4051;SDS011;2040;50.924;11.604;2023-06-26T02:41:45;9.13;;;4.60;;
4051;SDS011;2040;50.924;11.604;2023-06-26T02:44:10;8.07;;;5.00;;
4051;SDS011;2040;50.924;11.604;2023-06-26T02:46:37;10.40;;;5.00;;
4051;SDS011;2040;50.924;11.604;2023-06-26T02:49:03;7.00;;;4.50;;
4051;SDS011;2040;50.924;11.604;2023-06-26T02:51:28;6.70;;;4.00;;
4051;SDS011;2040;50.924;11.604;2023-06-26T02:53:54;7.93;;;5.23;;
4051;SDS011;2040;50.924;11.604;2023-06-26T02:56:20;7.80;;;4.97;;
4051;SDS011;2040;50.924;11.604;2023-06-26T02:58:45;7.40;;;4.80;;
4051;SDS011;2040;50.924;11.604;2023-06-26T03:01:11;9.37;;;5.23;;
4051;SDS011;2040;50.924;11.604;2023-06-26T03:03:36;8.20;;;4.70;;
4051;SDS011;2040;50.924;11.604;2023-06-26T03:06:08;7.10;;;4.37;;
4051;SDS011;2040;50.924;11.604;2023-06-26T03:08:37;7.40;;;4.80;;
4051;SDS011;2040;50.924;11.604;2023-06-26T03:11:04;9.73;;;4.50;;
4051;SDS011;2040;50.924;11.604;2023-06-26T03:13:30;7.43;;;5.07;;
4051;SDS011;2040;50.924;11.604;2023-06-26T03:15:56;6.20;;;4.53;;
4051;SDS011;2040;50.924;11.604;2023-06-26T03:18:22;11.50;;;4.70;;
4051;SDS011;2040;50.924;11.604;2023-06-26T03:20:47;5.93;;;4.40;;
4051;SDS011;2040;50.924;11.604;2023-06-26T03:23:13;5.97;;;4.00;;
4051;SDS011;2040;50.924;11.604;2023-06-26T03:25:39;6.70;;;4.73;;
4051;SDS011;2040;50.924;11.604;2023-06-26T03:28:04;18.10;;;5.30;;
4051;SDS011;2040;50.924;11.604;2023-06-26T03:30:30;8.77;;;5.03;;
4051;SDS011;2040;50.924;11.604;2023-06-26T03:32:55;7.97;;;5.30;;
4051;SDS011;2040;50.924;11.604;2023-06-26T03:35:21;15.00;;;5.33;;
4051;SDS011;2040;50.924;11.604;2023-06-26T03:37:48;7.60;;;5.47;;
4051;SDS011;2040;50.924;11.604;2023-06-26T03:40:13;6.43;;;4.30;;
4051;SDS011;2040;50.924;11.604;2023-06-26T03:42:39;10.60;;;5.10;;
4051;SDS011;2040;50.924;11.604;2023-06-26T03:45:05;7.53;;;5.20;;
4051;SDS011;2040;50.924;11.604;2023-06-26T03:47:31;8.23;;;5.40;;
4051;SDS011;2040;50.924;11.604;2023-06-26T03:49:56;11.60;;;5.83;;
4051;SDS011;2040;50.924;11.604;2023-06-26T03:52:22;6.73;;;4.67;;
4051;SDS011;2040;50.924;11.604;2023-06-26T03:54:48;6.87;;;4.80;;
4051;SDS011;2040;50.924;11.604;2023-06-26T03:57:14;10.23;;;5.40;;
4051;SDS011;2040;50.924;11.604;2023-06-26T03:59:39;12.83;;;5.10;;
4051;SDS011;2040;50.924;11.604;2023-06-26T04:02:05;7.00;;;4.80;;
4051;SDS011;2040;50.924;11.604;2023-06-26T04:04:30;7.93;;;5.30;;
4051;SDS011;2040;50.924;11.604;2023-06-26T04:06:56;10.00;;;5.40;;
4051;SDS011;2040;50.924;11.604;2023-06-26T04:09:24;10.43;;;5.80;;
4051;SDS011;2040;50.924;11.604;2023-06-26T04:11:50;11.43;;;5.57;;
4051;SDS011;2040;50.924;11.604;2023-06-26T04:14:15;6.57;;;5.00;;
4051;SDS011;2040;50.924;11.604;2023-06-26T04:16:41;7.87;;;4.67;;
4051;SDS011;2040;50.924;11.604;2023-06-26T04:19:07;9.20;;;5.80;;
4051;SDS011;2040;50.924;11.604;2023-06-26T04:21:34;7.90;;;5.40;;
4051;SDS011;2040;50.924;11.604;2023-06-26T04:24:00;8.33;;;5.50;;
4051;SDS011;2040;50.924;11.604;2023-06-26T04:26:26;7.90;;;5.00;;
4051;SDS011;2040;50.924;11.604;2023-06-26T04:28:53;8.73;;;5.20;;
4051;SDS011;2040;50.924;11.604;2023-06-26T04:31:19;9.63;;;5.87;;
4051;SDS011;2040;50.924;11.604;2023-06-26T04:33:44;10.00;;;6.00;;
4051;SDS011;2040;50.924;11.604;2023-06-26T04:36:10;8.23;;;5.23;;
4051;SDS011;2040;50.924;11.604;2023-06-26T04:38:36;9.30;;;5.70;;
4051;SDS011;2040;50.924;11.604;2023-06-26T04:41:01;8.63;;;5.80;;
4051;SDS011;2040;50.924;11.604;2023-06-26T04:43:27;6.40;;;4.53;;
4051;SDS011;2040;50.924;11.604;2023-06-26T04:45:53;11.43;;;5.73;;
4051;SDS011;2040;50.924;11.604;2023-06-26T04:48:19;14.83;;;6.30;;
4051;SDS011;2040;50.924;11.604;2023-06-26T04:50:45;8.70;;;5.50;;
4051;SDS011;2040;50.924;11.604;2023-06-26T04:53:18;14.70;;;5.67;;
4051;SDS011;2040;50.924;11.604;2023-06-26T04:55:44;10.43;;;6.30;;
4051;SDS011;2040;50.924;11.604;2023-06-26T04:58:10;14.43;;;6.53;;
4051;SDS011;2040;50.924;11.604;2023-06-26T05:00:35;11.67;;;6.30;;
4051;SDS011;2040;50.924;11.604;2023-06-26T05:03:01;9.00;;;6.07;;
4051;SDS011;2040;50.924;11.604;2023-06-26T05:05:27;7.77;;;5.50;;
4051;SDS011;2040;50.924;11.604;2023-06-26T05:07:53;8.17;;;5.80;;
4051;SDS011;2040;50.924;11.604;2023-06-26T05:10:20;10.30;;;5.80;;
4051;SDS011;2040;50.924;11.604;2023-06-26T05:12:45;10.73;;;6.13;;
4051;SDS011;2040;50.924;11.604;2023-06-26T05:15:11;8.50;;;5.53;;
4051;SDS011;2040;50.924;11.604;2023-06-26T05:17:36;8.60;;;6.03;;
4051;SDS011;2040;50.924;11.604;2023-06-26T05:20:02;10.70;;;7.13;;
4051;SDS011;2040;50.924;11.604;2023-06-26T05:22:29;11.63;;;6.47;;
4051;SDS011;2040;50.924;11.604;2023-06-26T05:24:54;12.40;;;6.20;;
4051;SDS011;2040;50.924;11.604;2023-06-26T05:27:24;11.10;;;6.97;;
4051;SDS011;2040;50.924;11.604;2023-06-26T05:29:50;13.43;;;7.60;;
4051;SDS011;2040;50.924;11.604;2023-06-26T05:32:16;9.57;;;6.37;;
4051;SDS011;2040;50.924;11.604;2023-06-26T05:34:47;14.80;;;5.87;;
4051;SDS011;2040;50.924;11.604;2023-06-26T05:37:18;7.47;;;5.73;;
4051;SDS011;2040;50.924;11.604;2023-06-26T05:39:46;10.77;;;6.77;;
4051;SDS011;2040;50.924;11.604;2023-06-26T05:42:12;14.13;;;7.80;;
4051;SDS011;2040;50.924;11.604;2023-06-26T05:44:38;10.80;;;7.00;;
4051;SDS011;2040;50.924;11.604;2023-06-26T05:47:03;9.17;;;6.00;;
4051;SDS011;2040;50.924;11.604;2023-06-26T05:49:29;14.37;;;6.47;;
4051;SDS011;2040;50.924;11.604;2023-06-26T05:51:56;6.50;;;5.60;;
4051;SDS011;2040;50.924;11.604;2023-06-26T05:54:23;15.50;;;6.90;;
4051;SDS011;2040;50.924;11.604;2023-06-26T05:56:49;10.70;;;7.20;;
4051;SDS011;2040;50.924;11.604;2023-06-26T05:59:18;10.80;;;6.43;;
4051;SDS011;2040;50.924;11.604;2023-06-26T06:01:44;10.00;;;6.00;;
4051;SDS011;2040;50.924;11.604;2023-06-26T06:04:09;12.13;;;6.40;;
4051;SDS011;2040;50.924;11.604;2023-06-26T06:06:35;9.60;;;5.77;;
4051;SDS011;2040;50.924;11.604;2023-06-26T06:09:00;9.03;;;6.07;;
4051;SDS011;2040;50.924;11.604;2023-06-26T06:11:26;14.53;;;6.63;;
4051;SDS011;2040;50.924;11.604;2023-06-26T06:13:51;8.57;;;5.83;;
4051;SDS011;2040;50.924;11.604;2023-06-26T06:16:17;8.63;;;5.93;;
4051;SDS011;2040;50.924;11.604;2023-06-26T06:18:43;10.13;;;6.40;;
4051;SDS011;2040;50.924;11.604;2023-06-26T06:21:08;11.70;;;6.33;;
4051;SDS011;2040;50.924;11.604;2023-06-26T06:23:34;9.73;;;6.80;;
4051;SDS011;2040;50.924;11.604;2023-06-26T06:25:59;9.80;;;6.97;;
4051;SDS011;2040;50.924;11.604;2023-06-26T06:28:25;11.80;;;6.50;;
4051;SDS011;2040;50.924;11.604;2023-06-26T06:30:50;8.70;;;6.00;;
4051;SDS011;2040;50.924;11.604;2023-06-26T06:33:16;10.83;;;7.13;;
4051;SDS011;2040;50.924;11.604;2023-06-26T06:35:42;10.30;;;6.10;;
4051;SDS011;2040;50.924;11.604;2023-06-26T06:38:07;9.53;;;5.50;;
4051;SDS011;2040;50.924;11.604;2023-06-26T06:40:33;9.30;;;6.07;;
4051;SDS011;2040;50.924;11.604;2023-06-26T06:42:58;12.03;;;7.00;;
4051;SDS011;2040;50.924;11.604;2023-06-26T06:45:24;8.47;;;6.23;;
4051;SDS011;2040;50.924;11.604;2023-06-26T06:47:49;11.90;;;6.13;;
4051;SDS011;2040;50.924;11.604;2023-06-26T06:50:15;8.90;;;6.10;;
4051;SDS011;2040;50.924;11.604;2023-06-26T06:52:42;11.13;;;6.07;;
4051;SDS011;2040;50.924;11.604;2023-06-26T06:55:08;7.30;;;4.93;;
4051;SDS011;2040;50.924;11.604;2023-06-26T06:57:34;7.90;;;5.80;;
4051;SDS011;2040;50.924;11.604;2023-06-26T07:00:11;10.20;;;6.23;;
4051;SDS011;2040;50.924;11.604;2023-06-26T07:02:40;10.50;;;6.67;;
4051;SDS011;2040;50.924;11.604;2023-06-26T07:05:07;8.57;;;6.10;;
4051;SDS011;2040;50.924;11.604;2023-06-26T07:07:34;17.23;;;5.13;;
4051;SDS011;2040;50.924;11.604;2023-06-26T07:10:04;7.83;;;5.37;;
4051;SDS011;2040;50.924;11.604;2023-06-26T07:12:32;7.90;;;6.03;;
4051;SDS011;2040;50.924;11.604;2023-06-26T07:14:59;10.07;;;6.47;;
4051;SDS011;2040;50.924;11.604;2023-06-26T07:17:25;7.30;;;5.80;;
4051;SDS011;2040;50.924;11.604;2023-06-26T07:19:51;8.60;;;5.67;;
4051;SDS011;2040;50.924;11.604;2023-06-26T07:22:16;7.60;;;5.50;;
4051;SDS011;2040;50.924;11.604;2023-06-26T07:24:45;7.50;;;5.17;;
4051;SDS011;2040;50.924;11.604;2023-06-26T07:27:11;8.17;;;5.87;;
4051;SDS011;2040;50.924;11.604;2023-06-26T07:29:36;8.20;;;5.67;;
4051;SDS011;2040;50.924;11.604;2023-06-26T07:32:02;9.93;;;5.97;;
4051;SDS011;2040;50.924;11.604;2023-06-26T07:34:28;11.03;;;5.57;;
4051;SDS011;2040;50.924;11.604;2023-06-26T07:36:53;11.10;;;5.70;;
4051;SDS011;2040;50.924;11.604;2023-06-26T07:39:19;7.90;;;5.50;;
4051;SDS011;2040;50.924;11.604;2023-06-26T07:41:45;8.33;;;6.20;;
4051;SDS011;2040;50.924;11.604;2023-06-26T07:44:10;7.50;;;5.43;;
4051;SDS011;2040;50.924;11.604;2023-06-26T07:46:36;10.77;;;6.17;;
4051;SDS011;2040;50.924;11.604;2023-06-26T07:49:01;9.17;;;6.10;;
4051;SDS011;2040;50.924;11.604;2023-06-26T07:51:27;8.80;;;5.57;;
4051;SDS011;2040;50.924;11.604;2023-06-26T07:53:53;10.43;;;5.63;;
4051;SDS011;2040;50.924;11.604;2023-06-26T07:56:18;9.40;;;6.13;;
4051;SDS011;2040;50.924;11.604;2023-06-26T07:58:44;9.63;;;5.87;;
4051;SDS011;2040;50.924;11.604;2023-06-26T08:01:10;6.90;;;5.67;;
4051;SDS011;2040;50.924;11.604;2023-06-26T08:03:36;8.43;;;5.50;;
4051;SDS011;2040;50.924;11.604;2023-06-26T08:06:01;9.77;;;6.50;;
4051;SDS011;2040;50.924;11.604;2023-06-26T08:08:28;9.23;;;5.40;;
4051;SDS011;2040;50.924;11.604;2023-06-26T08:10:54;8.57;;;6.80;;
4051;SDS011;2040;50.924;11.604;2023-06-26T08:13:19;8.70;;;5.40;;
4051;SDS011;2040;50.924;11.604;2023-06-26T08:15:45;8.40;;;6.20;;
4051;SDS011;2040;50.924;11.604;2023-06-26T08:18:10;7.53;;;5.90;;
4051;SDS011;2040;50.924;11.604;2023-06-26T08:20:36;7.57;;;5.10;;
4051;SDS011;2040;50.924;11.604;2023-06-26T08:23:03;7.83;;;5.20;;
4051;SDS011;2040;50.924;11.604;2023-06-26T08:25:29;6.60;;;4.97;;
4051;SDS011;2040;50.924;11.604;2023-06-26T08:27:55;9.20;;;5.93;;
4051;SDS011;2040;50.924;11.604;2023-06-26T08:30:21;7.10;;;5.43;;
4051;SDS011;2040;50.924;11.604;2023-06-26T08:32:47;8.37;;;5.87;;
4051;SDS011;2040;50.924;11.604;2023-06-26T08:35:12;6.93;;;5.17;;
4051;SDS011;2040;50.924;11.604;2023-06-26T08:37:38;5.30;;;4.23;;
4051;SDS011;2040;50.924;11.604;2023-06-26T08:40:04;10.13;;;5.77;;
4051;SDS011;2040;50.924;11.604;2023-06-26T08:42:31;6.83;;;5.30;;
4051;SDS011;2040;50.924;11.604;2023-06-26T08:44:57;7.50;;;4.30;;
4051;SDS011;2040;50.924;11.604;2023-06-26T08:47:22;6.50;;;4.67;;
4051;SDS011;2040;50.924;11.604;2023-06-26T08:52:55;8.73;;;5.43;;
4051;SDS011;2040;50.924;11.604;2023-06-26T08:55:41;8.37;;;4.73;;
4051;SDS011;2040;50.924;11.604;2023-06-26T08:58:08;11.00;;;5.60;;
4051;SDS011;2040;50.924;11.604;2023-06-26T09:00:34;8.97;;;5.10;;
4051;SDS011;2040;50.924;11.604;2023-06-26T09:03:00;8.00;;;5.17;;
4051;SDS011;2040;50.924;11.604;2023-06-26T09:05:28;9.83;;;5.03;;
4051;SDS011;2040;50.924;11.604;2023-06-26T09:07:54;8.53;;;5.60;;
4051;SDS011;2040;50.924;11.604;2023-06-26T09:10:22;7.53;;;4.77;;
4051;SDS011;2040;50.924;11.604;2023-06-26T09:12:48;6.83;;;4.37;;
4051;SDS011;2040;50.924;11.604;2023-06-26T09:15:14;10.80;;;4.57;;
4051;SDS011;2040;50.924;11.604;2023-06-26T09:17:40;8.23;;;4.83;;
4051;SDS011;2040;50.924;11.604;2023-06-26T09:20:07;4.90;;;4.10;;
4051;SDS011;2040;50.924;11.604;2023-06-26T09:22:34;5.10;;;4.27;;
4051;SDS011;2040;50.924;11.604;2023-06-26T09:25:03;7.13;;;4.20;;
4051;SDS011;2040;50.924;11.604;2023-06-26T09:27:30;6.37;;;4.07;;
4051;SDS011;2040;50.924;11.604;2023-06-26T09:29:56;9.00;;;4.20;;
4051;SDS011;2040;50.924;11.604;2023-06-26T09:32:26;5.70;;;4.13;;
4051;SDS011;2040;50.924;11.604;2023-06-26T09:34:55;8.50;;;4.20;;
4051;SDS011;2040;50.924;11.604;2023-06-26T09:37:21;6.53;;;4.17;;
4051;SDS011;2040;50.924;11.604;2023-06-26T09:39:47;7.07;;;3.50;;
4051;SDS011;2040;50.924;11.604;2023-06-26T09:42:14;9.30;;;4.30;;
4051;SDS011;2040;50.924;11.604;2023-06-26T09:44:43;7.70;;;4.30;;
4051;SDS011;2040;50.924;11.604;2023-06-26T09:47:10;4.80;;;3.97;;
4051;SDS011;2040;50.924;11.604;2023-06-26T09:49:36;5.13;;;3.97;;
4051;SDS011;2040;50.924;11.604;2023-06-26T09:52:03;4.93;;;3.90;;
4051;SDS011;2040;50.924;11.604;2023-06-26T09:54:28;5.30;;;3.97;;
4051;SDS011;2040;50.924;11.604;2023-06-26T09:56:55;5.67;;;4.00;;
4051;SDS011;2040;50.924;11.604;2023-06-26T09:59:31;7.03;;;4.33;;
4051;SDS011;2040;50.924;11.604;2023-06-26T10:01:58;4.83;;;4.20;;
4051;SDS011;2040;50.924;11.604;2023-06-26T10:04:24;5.10;;;4.23;;
4051;SDS011;2040;50.924;11.604;2023-06-26T10:06:50;5.20;;;3.80;;
4051;SDS011;2040;50.924;11.604;2023-06-26T10:09:18;6.33;;;3.80;;
4051;SDS011;2040;50.924;11.604;2023-06-26T10:11:59;6.07;;;4.10;;
4051;SDS011;2040;50.924;11.604;2023-06-26T10:14:32;5.43;;;4.20;;
4051;SDS011;2040;50.924;11.604;2023-06-26T10:17:01;4.70;;;3.53;;
4051;SDS011;2040;50.924;11.604;2023-06-26T10:19:29;5.37;;;4.33;;
4051;SDS011;2040;50.924;11.604;2023-06-26T10:21:57;4.57;;;3.40;;
4051;SDS011;2040;50.924;11.604;2023-06-26T10:24:26;7.23;;;4.07;;
4051;SDS011;2040;50.924;11.604;2023-06-26T10:26:59;8.13;;;4.43;;
4051;SDS011;2040;50.924;11.604;2023-06-26T10:29:35;6.60;;;4.00;;
4051;SDS011;2040;50.924;11.604;2023-06-26T10:32:02;7.83;;;4.30;;
4051;SDS011;2040;50.924;11.604;2023-06-26T10:34:29;5.40;;;3.50;;
4051;SDS011;2040;50.924;11.604;2023-06-26T10:37:02;5.47;;;3.77;;
4051;SDS011;2040;50.924;11.604;2023-06-26T10:42:34;5.50;;;4.20;;
4051;SDS011;2040;50.924;11.604;2023-06-26T10:45:14;5.50;;;3.90;;
4051;SDS011;2040;50.924;11.604;2023-06-26T10:47:41;4.90;;;3.90;;
4051;SDS011;2040;50.924;11.604;2023-06-26T10:50:27;11.60;;;4.20;;
4051;SDS011;2040;50.924;11.604;2023-06-26T10:58:39;3.90;;;3.50;;
4051;SDS011;2040;50.924;11.604;2023-06-26T11:01:22;5.67;;;4.30;;
4051;SDS011;2040;50.924;11.604;2023-06-26T11:06:31;6.53;;;4.33;;
4051;SDS011;2040;50.924;11.604;2023-06-26T11:09:01;7.87;;;4.50;;
4051;SDS011;2040;50.924;11.604;2023-06-26T11:14:17;8.70;;;4.40;;
4051;SDS011;2040;50.924;11.604;2023-06-26T11:16:43;7.33;;;4.60;;
4051;SDS011;2040;50.924;11.604;2023-06-26T11:19:09;4.80;;;4.13;;
4051;SDS011;2040;50.924;11.604;2023-06-26T11:21:36;6.17;;;4.53;;
4051;SDS011;2040;50.924;11.604;2023-06-26T11:24:04;6.10;;;3.70;;
4051;SDS011;2040;50.924;11.604;2023-06-26T11:26:31;4.90;;;3.97;;
4051;SDS011;2040;50.924;11.604;2023-06-26T11:29:12;5.33;;;4.10;;
4051;SDS011;2040;50.924;11.604;2023-06-26T11:31:38;6.23;;;4.73;;
4051;SDS011;2040;50.924;11.604;2023-06-26T11:36:38;6.13;;;4.23;;
4051;SDS011;2040;50.924;11.604;2023-06-26T11:39:06;6.10;;;4.47;;
4051;SDS011;2040;50.924;11.604;2023-06-26T11:41:33;7.40;;;4.40;;
4051;SDS011;2040;50.924;11.604;2023-06-26T11:44:07;5.67;;;4.30;;
4051;SDS011;2040;50.924;11.604;2023-06-26T11:46:39;4.70;;;3.70;;
4051;SDS011;2040;50.924;11.604;2023-06-26T11:49:05;5.90;;;4.17;;
4051;SDS011;2040;50.924;11.604;2023-06-26T11:51:32;6.33;;;4.30;;
4051;SDS011;2040;50.924;11.604;2023-06-26T11:54:00;4.80;;;3.63;;
4051;SDS011;2040;50.924;11.604;2023-06-26T11:56:27;5.63;;;4.90;;
4051;SDS011;2040;50.924;11.604;2023-06-26T11:59:00;7.10;;;4.47;;
4051;SDS011;2040;50.924;11.604;2023-06-26T12:04:01;6.70;;;4.53;;
4051;SDS011;2040;50.924;11.604;2023-06-26T12:06:31;6.73;;;4.03;;
4051;SDS011;2040;50.924;11.604;2023-06-26T12:08:59;4.37;;;3.70;;
4051;SDS011;2040;50.924;11.604;2023-06-26T12:11:26;10.60;;;4.70;;
4051;SDS011;2040;50.924;11.604;2023-06-26T12:13:53;7.63;;;4.60;;
4051;SDS011;2040;50.924;11.604;2023-06-26T12:16:19;5.83;;;4.57;;
4051;SDS011;2040;50.924;11.604;2023-06-26T12:18:45;5.50;;;4.10;;
4051;SDS011;2040;50.924;11.604;2023-06-26T12:24:02;6.10;;;4.80;;
4051;SDS011;2040;50.924;11.604;2023-06-26T12:26:28;7.20;;;4.53;;
4051;SDS011;2040;50.924;11.604;2023-06-26T12:29:04;8.83;;;4.23;;
4051;SDS011;2040;50.924;11.604;2023-06-26T12:31:34;6.47;;;4.20;;
4051;SDS011;2040;50.924;11.604;2023-06-26T12:34:01;5.77;;;4.70;;
4051;SDS011;2040;50.924;11.604;2023-06-26T12:36:27;5.03;;;4.20;;
4051;SDS011;2040;50.924;11.604;2023-06-26T12:38:53;14.70;;;4.60;;
4051;SDS011;2040;50.924;11.604;2023-06-26T12:41:19;9.43;;;4.10;;
4051;SDS011;2040;50.924;11.604;2023-06-26T12:43:45;4.67;;;4.10;;
4051;SDS011;2040;50.924;11.604;2023-06-26T12:46:11;5.87;;;4.40;;
4051;SDS011;2040;50.924;11.604;2023-06-26T12:48:38;5.20;;;4.50;;
4051;SDS011;2040;50.924;11.604;2023-06-26T12:51:12;7.80;;;4.70;;
4051;SDS011;2040;50.924;11.604;2023-06-26T12:53:42;5.70;;;4.83;;
4051;SDS011;2040;50.924;11.604;2023-06-26T12:56:08;6.73;;;4.13;;
4051;SDS011;2040;50.924;11.604;2023-06-26T12:58:35;5.43;;;3.93;;
4051;SDS011;2040;50.924;11.604;2023-06-26T13:01:05;5.13;;;4.20;;
4051;SDS011;2040;50.924;11.604;2023-06-26T13:03:39;7.17;;;4.37;;
4051;SDS011;2040;50.924;11.604;2023-06-26T13:06:05;5.43;;;4.00;;
4051;SDS011;2040;50.924;11.604;2023-06-26T13:08:31;5.07;;;4.40;;
4051;SDS011;2040;50.924;11.604;2023-06-26T13:10:58;6.00;;;4.10;;
4051;SDS011;2040;50.924;11.604;2023-06-26T13:13:23;6.40;;;3.70;;
4051;SDS011;2040;50.924;11.604;2023-06-26T13:15:49;5.13;;;3.90;;
4051;SDS011;2040;50.924;11.604;2023-06-26T13:18:15;6.80;;;4.63;;
4051;SDS011;2040;50.924;11.604;2023-06-26T13:20:40;5.87;;;4.60;;
4051;SDS011;2040;50.924;11.604;2023-06-26T13:23:06;6.10;;;4.47;;
4051;SDS011;2040;50.924;11.604;2023-06-26T13:25:32;5.27;;;4.00;;
4051;SDS011;2040;50.924;11.604;2023-06-26T13:27:58;6.67;;;4.70;;
4051;SDS011;2040;50.924;11.604;2023-06-26T13:30:24;8.03;;;4.80;;
4051;SDS011;2040;50.924;11.604;2023-06-26T13:32:52;9.73;;;5.00;;
4051;SDS011;2040;50.924;11.604;2023-06-26T13:35:18;6.47;;;4.47;;
4051;SDS011;2040;50.924;11.604;2023-06-26T13:37:46;10.90;;;5.40;;
4051;SDS011;2040;50.924;11.604;2023-06-26T13:40:12;11.10;;;4.90;;
4051;SDS011;2040;50.924;11.604;2023-06-26T13:42:38;9.23;;;5.10;;
4051;SDS011;2040;50.924;11.604;2023-06-26T13:45:04;9.37;;;5.73;;
4051;SDS011;2040;50.924;11.604;2023-06-26T13:47:30;10.70;;;5.83;;
4051;SDS011;2040;50.924;11.604;2023-06-26T13:49:56;9.57;;;5.50;;
4051;SDS011;2040;50.924;11.604;2023-06-26T13:52:21;9.30;;;5.20;;
4051;SDS011;2040;50.924;11.604;2023-06-26T13:54:47;11.80;;;5.30;;
4051;SDS011;2040;50.924;11.604;2023-06-26T13:57:13;6.90;;;4.80;;
4051;SDS011;2040;50.924;11.604;2023-06-26T13:59:38;7.83;;;5.13;;
4051;SDS011;2040;50.924;11.604;2023-06-26T14:02:05;12.03;;;5.27;;
4051;SDS011;2040;50.924;11.604;2023-06-26T14:04:32;9.47;;;5.83;;
4051;SDS011;2040;50.924;11.604;2023-06-26T14:06:57;12.33;;;5.47;;
4051;SDS011;2040;50.924;11.604;2023-06-26T14:09:23;9.07;;;5.30;;
4051;SDS011;2040;50.924;11.604;2023-06-26T14:11:48;12.90;;;6.93;;
4051;SDS011;2040;50.924;11.604;2023-06-26T14:14:14;7.87;;;5.70;;
4051;SDS011;2040;50.924;11.604;2023-06-26T14:16:39;21.43;;;6.30;;
4051;SDS011;2040;50.924;11.604;2023-06-26T14:19:06;6.33;;;4.70;;
4051;SDS011;2040;50.924;11.604;2023-06-26T14:21:31;8.73;;;5.70;;
4051;SDS011;2040;50.924;11.604;2023-06-26T14:23:58;8.20;;;5.27;;
4051;SDS011;2040;50.924;11.604;2023-06-26T14:26:24;12.80;;;5.70;;
4051;SDS011;2040;50.924;11.604;2023-06-26T14:28:49;8.37;;;5.40;;
4051;SDS011;2040;50.924;11.604;2023-06-26T14:31:15;7.00;;;4.70;;
4051;SDS011;2040;50.924;11.604;2023-06-26T14:33:40;8.97;;;5.40;;
4051;SDS011;2040;50.924;11.604;2023-06-26T14:36:06;9.93;;;5.50;;
4051;SDS011;2040;50.924;11.604;2023-06-26T14:38:31;7.17;;;4.57;;
4051;SDS011;2040;50.924;11.604;2023-06-26T14:40:57;11.67;;;5.23;;
4051;SDS011;2040;50.924;11.604;2023-06-26T14:43:22;13.50;;;5.20;;
4051;SDS011;2040;50.924;11.604;2023-06-26T14:45:49;13.70;;;5.40;;
4051;SDS011;2040;50.924;11.604;2023-06-26T14:48:15;9.30;;;5.67;;
4051;SDS011;2040;50.924;11.604;2023-06-26T14:50:40;7.43;;;4.77;;
4051;SDS011;2040;50.924;11.604;2023-06-26T14:53:06;8.50;;;5.07;;
4051;SDS011;2040;50.924;11.604;2023-06-26T14:55:31;9.50;;;4.90;;
4051;SDS011;2040;50.924;11.604;2023-06-26T14:57:57;7.53;;;5.00;;
4051;SDS011;2040;50.924;11.604;2023-06-26T15:00:23;9.43;;;5.23;;
4051;SDS011;2040;50.924;11.604;2023-06-26T15:02:49;12.07;;;6.10;;
4051;SDS011;2040;50.924;11.604;2023-06-26T15:05:18;8.23;;;5.53;;
4051;SDS011;2040;50.924;11.604;2023-06-26T15:07:43;7.57;;;5.30;;
4051;SDS011;2040;50.924;11.604;2023-06-26T15:10:09;7.03;;;4.73;;
4051;SDS011;2040;50.924;11.604;2023-06-26T15:12:35;8.40;;;5.80;;
4051;SDS011;2040;50.924;11.604;2023-06-26T15:15:00;8.27;;;5.23;;
4051;SDS011;2040;50.924;11.604;2023-06-26T15:17:26;7.13;;;5.80;;
4051;SDS011;2040;50.924;11.604;2023-06-26T15:19:51;7.17;;;5.27;;
4051;SDS011;2040;50.924;11.604;2023-06-26T15:22:17;9.67;;;6.10;;
4051;SDS011;2040;50.924;11.604;2023-06-26T15:24:43;9.50;;;6.17;;